Kelmont East, Nevada
Current Conditions -  °F | °C
As of 7:53 PM on Friday 19 Dec 2014 (Local Time) from KTVL Reporting Station
Light Rain Light Rain  
Wind Chill: 36°   Ceiling: 2600
Heat Index: 36°   Visibility: 7mi
Dew Point: 31°   Wind: 0mph
Humidity: 82%   Direction: NA
Pressure: 30.13"   Gusts: NA
Location:  39.0164°N, 119.925°W
Report Text: KTVL 200353Z AUTO 00000KT 7SM -RA FEW019 OVC026 02/M01 A3013 RMK AO2 RAB22SNE22 SLP188 P0002 T00221006
Loading
Personal Weather Stations






























Interactive Weather Map New forecast layout! Learn more

10-Day Weather Forecast

Advertisements
Track Severe Weather on mobile